Time;durP1;ratioP1;P1;durP2;ratioP2;P2;SDS_P1;SDS_P2;PMS_P1;PMS_P2;Temp;Humidity;BMP_temperature;BMP_pressure;BME280_temperature;BME280_humidity;BME280_pressure;Samples;Min_cycle;Max_cycle;Signal;HPM_P1;HPM_P2
2023/01/25 00:00:13;;;;;;;;;;;;;;;5.07;72.92;101517.16;5098592;28;5138;-78
2023/01/25 00:02:40;;;;;;;;;;;;;;;5.04;73.07;101514.78;5098299;28;5140;-78
2023/01/25 00:05:06;;;;;;;;;;;;;;;5.02;73.19;101514.09;5113544;28;5269;-78
2023/01/25 00:07:33;;;;;;;;;;;;;;;4.98;73.24;101507.44;5078793;28;5220;-78
2023/01/25 00:10:00;;;;;;;;;;;;;;;5.06;73.06;101503.94;5084835;28;5253;-78
2023/01/25 00:12:27;;;;;;;;;;;;;;;5.05;72.98;101499.59;5103455;28;5182;-78
2023/01/25 00:14:54;;;;;;;;;;;;;;;5.06;72.96;101495.94;5079952;28;5392;-79
2023/01/25 00:17:21;;;;;;;;;;;;;;;5.03;73.24;101504.25;5098616;28;5196;-78
2023/01/25 00:19:48;;;;;;;;;;;;;;;5.00;72.90;101500.94;5100162;28;5162;-78
2023/01/25 00:22:14;;;;;;;;;;;;;;;4.99;73.18;101483.22;5096873;28;5167;-78
2023/01/25 00:24:40;;;;;;;;;;;;;;;5.00;73.26;101481.41;5098490;28;5119;-79
2023/01/25 00:27:08;;;;;;;;;;;;;;;4.99;73.36;101472.53;5105972;27;5231;-78
2023/01/25 00:29:35;;;;;;;;;;;;;;;5.00;73.29;101471.56;5096907;27;5459;-78
2023/01/25 00:32:02;;;;;;;;;;;;;;;4.95;73.37;101460.53;5116767;27;5345;-78
2023/01/25 00:34:28;;;;;;;;;;;;;;;4.95;73.25;101451.69;5113365;27;5261;-78
2023/01/25 00:36:56;;;;;;;;;;;;;;;4.98;73.43;101462.03;5121067;27;5385;-78
2023/01/25 00:39:22;;;;;;;;;;;;;;;4.92;73.60;101455.50;5119103;27;5329;-78
2023/01/25 00:41:49;;;;;;;;;;;;;;;4.99;73.36;101437.00;5105661;27;5226;-78
2023/01/25 00:44:16;;;;;;;;;;;;;;;4.94;73.46;101442.84;5100366;27;5627;-78
2023/01/25 00:46:43;;;;;;;;;;;;;;;5.01;73.25;101451.03;5084101;27;5092;-78
2023/01/25 00:49:10;;;;;;;;;;;;;;;4.99;73.31;101437.84;5084420;27;5271;-78
2023/01/25 00:51:37;;;;;;;;;;;;;;;5.01;73.23;101435.84;5112373;27;5195;-78
2023/01/25 00:54:04;;;;;;;;;;;;;;;4.91;73.54;101435.16;5120611;27;5746;-78
2023/01/25 00:56:31;;;;;;;;;;;;;;;5.00;73.11;101438.69;5098734;27;6075;-78
2023/01/25 00:58:57;;;;;;;;;;;;;;;5.00;73.37;101452.88;5098009;27;5560;-78
2023/01/25 01:01:25;;;;;;;;;;;;;;;4.96;73.44;101445.34;5086643;27;5314;-78
2023/01/25 01:03:52;;;;;;;;;;;;;;;5.04;73.19;101448.03;5103381;27;5151;-78
2023/01/25 01:06:19;;;;;;;;;;;;;;;4.98;73.48;101440.69;5089278;27;5459;-78
2023/01/25 01:08:46;;;;;;;;;;;;;;;4.98;73.40;101438.00;5100965;27;5133;-78
2023/01/25 01:11:13;;;;;;;;;;;;;;;5.13;72.82;101436.38;5103921;27;5412;-78
2023/01/25 01:13:39;;;;;;;;;;;;;;;5.01;73.09;101427.00;5101973;27;5090;-78
2023/01/25 01:16:07;;;;;;;;;;;;;;;4.95;73.67;101428.47;5084745;27;5628;-78
2023/01/25 01:18:33;;;;;;;;;;;;;;;4.95;73.48;101412.47;5101356;27;5150;-78
2023/01/25 01:21:00;;;;;;;;;;;;;;;5.03;73.21;101411.66;5088276;27;5199;-78
2023/01/25 01:23:26;;;;;;;;;;;;;;;4.97;73.45;101421.16;5102278;27;5765;-78
2023/01/25 01:25:53;;;;;;;;;;;;;;;4.99;73.49;101408.47;5101828;27;5143;-78
2023/01/25 01:28:20;;;;;;;;;;;;;;;5.04;73.37;101402.66;5100100;27;5674;-78
2023/01/25 01:30:47;;;;;;;;;;;;;;;4.87;73.64;101391.06;5103248;27;5606;-78
2023/01/25 01:33:13;;;;;;;;;;;;;;;4.98;73.25;101388.13;5103803;27;5135;-78
2023/01/25 01:35:40;;;;;;;;;;;;;;;5.02;73.21;101396.63;5101104;27;5258;-78
2023/01/25 01:38:06;;;;;;;;;;;;;;;4.91;73.86;101391.59;5103650;27;5287;-78
2023/01/25 01:40:33;;;;;;;;;;;;;;;4.93;73.78;101397.59;5100713;27;5126;-78
2023/01/25 01:42:59;;;;;;;;;;;;;;;4.94;73.57;101385.91;5103638;27;5139;-78
2023/01/25 01:45:28;;;;;;;;;;;;;;;4.87;73.88;101395.59;5099206;27;5622;-78
2023/01/25 01:47:55;;;;;;;;;;;;;;;4.90;73.72;101385.41;5103045;27;5365;-78
2023/01/25 01:50:22;;;;;;;;;;;;;;;4.86;73.84;101381.41;5101257;27;5138;-78
2023/01/25 01:52:49;;;;;;;;;;;;;;;4.84;73.96;101378.06;5085604;27;5736;-78
2023/01/25 01:55:16;;;;;;;;;;;;;;;4.87;73.90;101377.72;5083043;27;5163;-78
2023/01/25 01:57:43;;;;;;;;;;;;;;;4.84;73.93;101386.06;5118692;27;5300;-78
2023/01/25 02:00:09;;;;;;;;;;;;;;;4.83;74.22;101386.25;5100996;27;5300;-78
2023/01/25 02:02:36;;;;;;;;;;;;;;;4.89;73.89;101393.59;5119419;27;5353;-78
2023/01/25 02:05:03;;;;;;;;;;;;;;;4.92;73.48;101385.25;5119358;27;5769;-78
2023/01/25 02:07:30;;;;;;;;;;;;;;;4.92;73.67;101378.09;5102559;27;5832;-78
2023/01/25 02:09:57;;;;;;;;;;;;;;;4.88;73.74;101374.09;5097929;27;5774;-78
2023/01/25 02:12:24;;;;;;;;;;;;;;;4.83;74.12;101365.72;5101623;27;5229;-78
2023/01/25 02:14:51;;;;;;;;;;;;;;;4.82;73.78;101374.69;5099758;27;5206;-78
2023/01/25 02:17:17;;;;;;;;;;;;;;;4.90;73.71;101363.22;5102059;27;5135;-78
2023/01/25 02:19:45;;;;;;;;;;;;;;;4.96;73.45;101366.06;5104646;27;5273;-78
2023/01/25 02:22:12;;;;;;;;;;;;;;;4.85;73.91;101355.69;5085996;27;5114;-78
2023/01/25 02:24:38;;;;;;;;;;;;;;;4.80;74.25;101351.88;5098577;27;5139;-78
2023/01/25 02:27:05;;;;;;;;;;;;;;;4.92;73.78;101358.56;5100611;27;5339;-78
2023/01/25 02:29:32;;;;;;;;;;;;;;;4.85;73.58;101361.03;5097080;27;5262;-78
2023/01/25 02:31:58;;;;;;;;;;;;;;;4.81;74.23;101349.03;5102230;27;5702;-78
2023/01/25 02:34:25;;;;;;;;;;;;;;;4.76;74.17;101341.53;5103051;27;5554;-78
2023/01/25 02:36:52;;;;;;;;;;;;;;;4.82;74.47;101353.34;5097789;27;5202;-78
2023/01/25 02:39:20;;;;;;;;;;;;;;;4.77;74.47;101347.69;5100875;27;5233;-78
2023/01/25 02:41:47;;;;;;;;;;;;;;;4.80;74.29;101357.22;5098771;27;5203;-78
2023/01/25 02:44:15;;;;;;;;;;;;;;;4.80;74.11;101341.19;5098346;27;5219;-78
2023/01/25 02:46:43;;;;;;;;;;;;;;;4.82;74.07;101339.16;5098483;27;5165;-78
2023/01/25 02:49:10;;;;;;;;;;;;;;;4.82;74.18;101333.84;5099963;27;5234;-78
2023/01/25 02:51:39;;;;;;;;;;;;;;;4.75;74.17;101331.00;5102314;27;5238;-78
2023/01/25 02:54:05;;;;;;;;;;;;;;;4.77;74.32;101327.16;5098998;27;5193;-78
2023/01/25 02:56:32;;;;;;;;;;;;;;;4.80;74.31;101317.16;5100086;27;5155;-78
2023/01/25 02:59:04;;;;;;;;;;;;;;;4.78;74.21;101315.47;5101748;27;5134;-78
2023/01/25 03:01:31;;;;;;;;;;;;;;;4.80;74.07;101307.31;5102237;27;5367;-78
2023/01/25 03:03:58;;;;;;;;;;;;;;;4.79;74.16;101308.31;5089305;27;5130;-78
2023/01/25 03:06:26;;;;;;;;;;;;;;;4.78;74.12;101293.31;5100557;27;5158;-78
2023/01/25 03:08:53;;;;;;;;;;;;;;;4.73;74.30;101292.94;5114954;27;5651;-78
2023/01/25 03:11:21;;;;;;;;;;;;;;;4.77;74.31;101305.81;5100231;27;5227;-78
2023/01/25 03:13:47;;;;;;;;;;;;;;;4.83;74.01;101308.84;5099170;28;5373;-78
2023/01/25 03:16:15;;;;;;;;;;;;;;;4.81;74.11;101297.47;5105081;27;5344;-79
2023/01/25 03:18:41;;;;;;;;;;;;;;;4.75;74.10;101297.13;5094231;27;5262;-78
2023/01/25 03:21:08;;;;;;;;;;;;;;;4.78;74.27;101296.78;5117350;27;5427;-78
2023/01/25 03:23:35;;;;;;;;;;;;;;;4.78;74.34;101286.13;5097533;28;5757;-78
2023/01/25 03:26:02;;;;;;;;;;;;;;;4.82;74.18;101277.78;5088689;28;5559;-78
2023/01/25 03:28:28;;;;;;;;;;;;;;;4.84;74.32;101259.78;5088977;28;5280;-78
2023/01/25 03:30:56;;;;;;;;;;;;;;;4.81;74.03;101262.78;5099910;28;5511;-78
2023/01/25 03:33:22;;;;;;;;;;;;;;;4.83;74.18;101260.78;5117482;28;5336;-78
2023/01/25 03:35:49;;;;;;;;;;;;;;;4.81;74.04;101254.78;5118716;28;5386;-78
2023/01/25 03:38:16;;;;;;;;;;;;;;;4.89;73.78;101249.44;5117387;28;5456;-78
2023/01/25 03:40:43;;;;;;;;;;;;;;;4.89;73.69;101262.81;5098128;28;5358;-78
2023/01/25 03:43:10;;;;;;;;;;;;;;;4.87;73.95;101257.63;5086525;28;5621;-78
2023/01/25 03:45:36;;;;;;;;;;;;;;;4.87;74.04;101248.78;5099789;28;5093;-78
2023/01/25 03:48:03;;;;;;;;;;;;;;;4.98;73.41;101237.78;5098444;28;5311;-78
2023/01/25 03:50:31;;;;;;;;;;;;;;;4.87;73.80;101233.59;5077999;28;5143;-78
2023/01/25 03:53:02;;;;;;;;;;;;;;;4.81;74.22;101236.91;5094707;28;5176;-78
2023/01/25 03:55:29;;;;;;;;;;;;;;;4.90;73.79;101222.56;5099819;28;5194;-78
2023/01/25 03:57:56;;;;;;;;;;;;;;;4.86;73.90;101231.09;5079183;28;5688;-78
2023/01/25 04:00:23;;;;;;;;;;;;;;;4.83;73.97;101218.91;5098519;27;5638;-78
2023/01/25 04:02:51;;;;;;;;;;;;;;;4.88;73.93;101208.59;5083578;27;5208;-78
2023/01/25 04:05:18;;;;;;;;;;;;;;;4.94;73.65;101194.56;5101523;27;5518;-78
2023/01/25 04:07:44;;;;;;;;;;;;;;;4.87;74.02;101182.88;5085858;27;5215;-78
2023/01/25 04:10:11;;;;;;;;;;;;;;;4.89;73.89;101180.06;5102503;27;5131;-78
2023/01/25 04:12:39;;;;;;;;;;;;;;;4.89;73.88;101170.19;5087749;27;5008;-78
2023/01/25 04:15:25;;;;;;;;;;;;;;;4.86;74.06;101172.38;5105441;27;5190;-78
2023/01/25 04:18:12;;;;;;;;;;;;;;;4.91;73.96;101170.03;5101929;27;5118;-78
2023/01/25 04:20:59;;;;;;;;;;;;;;;4.93;73.80;101163.50;5104385;27;5427;-78
2023/01/25 04:23:49;;;;;;;;;;;;;;;4.92;73.81;101161.03;5103838;27;4964;-78
2023/01/25 04:26:36;;;;;;;;;;;;;;;4.85;74.12;101168.03;5108758;27;5157;-78
2023/01/25 04:29:04;;;;;;;;;;;;;;;4.86;74.12;101165.19;5101311;27;5150;-78
2023/01/25 04:31:33;;;;;;;;;;;;;;;4.83;74.38;101159.38;5102285;27;5306;-78
2023/01/25 04:34:00;;;;;;;;;;;;;;;4.89;73.92;101145.34;5097174;27;5254;-78
2023/01/25 04:36:27;;;;;;;;;;;;;;;4.89;74.01;101158.69;5121852;27;5201;-78
2023/01/25 04:38:55;;;;;;;;;;;;;;;4.89;73.92;101145.34;5090030;27;5769;-78
2023/01/25 04:41:25;;;;;;;;;;;;;;;4.98;73.68;101158.50;5104750;27;5158;-78
2023/01/25 04:43:52;;;;;;;;;;;;;;;4.87;73.99;101161.53;5101386;27;5210;-78
2023/01/25 04:46:19;;;;;;;;;;;;;;;4.87;74.14;101147.34;5102835;27;5672;-78
2023/01/25 04:48:47;;;;;;;;;;;;;;;4.84;74.18;101147.69;5100057;27;5202;-78
2023/01/25 04:51:14;;;;;;;;;;;;;;;4.40;74.17;101075.97;5102487;27;5507;-78
2023/01/25 04:53:41;;;;;;;;;;;;;;;4.80;74.43;101154.38;5104407;27;5219;-78
2023/01/25 04:56:08;;;;;;;;;;;;;;;4.91;73.93;101156.66;5101034;27;5253;-78
2023/01/25 04:58:34;;;;;;;;;;;;;;;4.92;73.89;101169.03;5104978;27;5154;-78
2023/01/25 05:01:01;;;;;;;;;;;;;;;4.89;74.07;101164.03;5101472;27;5221;-78
2023/01/25 05:03:27;;;;;;;;;;;;;;;4.88;74.13;101151.66;5099971;27;5144;-78
2023/01/25 05:05:54;;;;;;;;;;;;;;;4.87;74.10;101153.50;5081778;27;5139;-78
2023/01/25 05:08:24;;;;;;;;;;;;;;;4.92;74.10;101131.66;5102892;27;5736;-78
2023/01/25 05:10:51;;;;;;;;;;;;;;;4.89;74.17;101124.81;5084991;27;5298;-78
2023/01/25 05:13:19;;;;;;;;;;;;;;;4.86;74.15;101125.16;5098716;27;5822;-78
2023/01/25 05:15:46;;;;;;;;;;;;;;;4.84;74.35;101121.81;5100137;27;5138;-78
2023/01/25 05:18:13;;;;;;;;;;;;;;;4.78;74.63;101109.16;5102917;27;5296;-78
2023/01/25 05:20:40;;;;;;;;;;;;;;;4.82;74.64;101105.13;5083817;27;5267;-78
2023/01/25 05:23:07;;;;;;;;;;;;;;;4.84;74.47;101099.63;5104497;27;5666;-78
2023/01/25 05:28:19;;;;;;;;;;;;;;;4.88;74.25;101119.63;5118226;27;5432;-78
2023/01/25 05:30:46;;;;;;;;;;;;;;;4.86;74.47;101124.34;5119734;27;5313;-78
2023/01/25 05:33:13;;;;;;;;;;;;;;;4.89;74.29;101122.16;5098731;27;5315;-78
2023/01/25 05:35:39;;;;;;;;;;;;;;;4.81;74.62;101130.16;5119546;27;5408;-78
2023/01/25 05:38:06;;;;;;;;;;;;;;;4.87;74.29;101118.81;5119823;27;5450;-78
2023/01/25 05:40:33;;;;;;;;;;;;;;;4.86;74.44;101119.81;5108633;27;5317;-78
2023/01/25 05:43:00;;;;;;;;;;;;;;;4.82;74.55;101112.31;5082590;27;5376;-78
2023/01/25 05:45:28;;;;;;;;;;;;;;;4.81;74.40;101126.66;5099177;27;5285;-78
2023/01/25 05:47:56;;;;;;;;;;;;;;;4.76;74.63;101104.00;5078784;28;5195;-78
2023/01/25 05:50:23;;;;;;;;;;;;;;;4.77;74.74;101089.63;5099718;27;5150;-78
2023/01/25 05:52:50;;;;;;;;;;;;;;;4.84;74.48;101086.28;5087978;27;5175;-78
2023/01/25 05:55:17;;;;;;;;;;;;;;;4.81;74.55;101070.63;5102183;27;5256;-78
2023/01/25 05:57:45;;;;;;;;;;;;;;;4.76;74.86;101079.13;5080016;27;5140;-78
2023/01/25 06:00:12;;;;;;;;;;;;;;;4.84;74.65;101080.94;5088925;27;5292;-78
2023/01/25 06:02:39;;;;;;;;;;;;;;;4.84;74.54;101087.13;5098943;27;5745;-78
2023/01/25 06:05:06;;;;;;;;;;;;;;;4.81;74.89;101098.13;5101524;27;5182;-78
2023/01/25 06:07:35;;;;;;;;;;;;;;;4.83;74.91;101111.31;5100171;27;5167;-78
2023/01/25 06:10:02;;;;;;;;;;;;;;;4.84;74.63;101104.97;5083598;27;5083;-78
2023/01/25 06:12:29;;;;;;;;;;;;;;;4.79;74.80;101094.78;5097931;27;5147;-79
2023/01/25 06:14:56;;;;;;;;;;;;;;;4.76;74.94;101082.66;5099753;27;5220;-78
2023/01/25 06:17:22;;;;;;;;;;;;;;;4.83;74.81;101081.97;5098361;27;5265;-78
2023/01/25 06:19:49;;;;;;;;;;;;;;;4.90;74.40;101067.75;5102063;27;5161;-78
2023/01/25 06:22:17;;;;;;;;;;;;;;;4.82;74.69;101082.94;5099013;27;5481;-78
2023/01/25 06:24:43;;;;;;;;;;;;;;;4.79;74.62;101084.13;5098207;27;5203;-78
2023/01/25 06:27:11;;;;;;;;;;;;;;;4.78;74.69;101071.78;5100592;27;5237;-78
2023/01/25 06:29:38;;;;;;;;;;;;;;;4.85;74.89;101077.28;5099590;27;5221;-78
2023/01/25 06:32:05;;;;;;;;;;;;;;;4.78;74.54;101075.28;5081573;27;5430;-78
2023/01/25 06:34:31;;;;;;;;;;;;;;;4.78;74.76;101077.13;5104111;27;5154;-78
2023/01/25 06:37:00;;;;;;;;;;;;;;;4.83;74.75;101073.97;5097980;27;5079;-78
2023/01/25 06:39:28;;;;;;;;;;;;;;;4.80;74.81;101072.47;5108339;27;5300;-78
2023/01/25 06:41:55;;;;;;;;;;;;;;;4.72;75.05;101059.94;5100450;28;5718;-78
2023/01/25 06:44:22;;;;;;;;;;;;;;;4.81;74.74;101054.59;5105230;27;5203;-78
2023/01/25 06:46:49;;;;;;;;;;;;;;;4.75;74.95;101054.28;5103286;27;5309;-78
2023/01/25 06:49:17;;;;;;;;;;;;;;;4.72;75.08;101048.44;5096955;27;5162;-78
2023/01/25 06:51:44;;;;;;;;;;;;;;;4.26;75.01;100971.63;5097655;27;5696;-78
2023/01/25 06:54:11;;;;;;;;;;;;;;;4.74;74.95;101023.25;5099569;27;5389;-78
2023/01/25 06:56:38;;;;;;;;;;;;;;;4.77;74.92;101030.09;5105250;27;5313;-78
2023/01/25 06:59:05;;;;;;;;;;;;;;;4.78;74.81;101029.09;5099988;27;5362;-78
2023/01/25 07:01:32;;;;;;;;;;;;;;;4.90;74.56;101038.41;5116549;27;5397;-78
2023/01/25 07:03:59;;;;;;;;;;;;;;;4.74;75.10;101028.59;5117915;27;5884;-78
2023/01/25 07:06:26;;;;;;;;;;;;;;;4.74;75.13;101031.28;5118223;27;5460;-78
2023/01/25 07:08:53;;;;;;;;;;;;;;;4.81;74.96;101010.06;5116145;27;5445;-78
2023/01/25 07:11:19;;;;;;;;;;;;;;;4.78;75.08;100997.88;5116028;27;5904;-78
2023/01/25 07:13:46;;;;;;;;;;;;;;;4.74;75.08;100993.91;5108995;27;5527;-78
2023/01/25 07:16:15;;;;;;;;;;;;;;;4.70;75.17;100987.22;5117780;27;5278;-78
2023/01/25 07:18:42;;;;;;;;;;;;;;;4.71;75.34;100988.91;5097830;27;6068;-78
2023/01/25 07:21:10;;;;;;;;;;;;;;;4.77;74.88;101004.25;5117169;27;5577;-78
2023/01/25 07:23:37;;;;;;;;;;;;;;;4.71;75.20;101014.78;5116651;27;5380;-78
2023/01/25 07:26:04;;;;;;;;;;;;;;;4.81;74.92;101017.25;5098165;27;5026;-78
2023/01/25 07:28:31;;;;;;;;;;;;;;;4.89;74.69;101010.03;5082888;28;5543;-78
2023/01/25 07:30:59;;;;;;;;;;;;;;;4.79;74.87;100996.03;5096150;27;4982;-78
2023/01/25 07:33:26;;;;;;;;;;;;;;;4.73;75.21;100991.41;5096951;28;5086;-78
2023/01/25 07:35:53;;;;;;;;;;;;;;;4.72;74.88;100976.41;5100389;27;5423;-78
2023/01/25 07:38:20;;;;;;;;;;;;;;;4.69;75.40;100969.56;5103524;27;4976;-78
2023/01/25 07:40:47;;;;;;;;;;;;;;;4.72;75.20;100968.41;5120238;27;5111;-79
2023/01/25 07:43:13;;;;;;;;;;;;;;;4.72;75.28;100955.88;5119830;27;5237;-78
2023/01/25 07:45:43;;;;;;;;;;;;;;;4.72;75.14;100955.06;5122730;27;5674;-78
2023/01/25 07:48:10;;;;;;;;;;;;;;;4.69;75.50;100942.06;5123360;27;5155;-78
2023/01/25 07:50:40;;;;;;;;;;;;;;;4.68;75.43;100930.56;5123640;27;5607;-78
2023/01/25 07:53:08;;;;;;;;;;;;;;;4.67;75.48;100926.19;5123142;27;5603;-78
2023/01/25 07:55:35;;;;;;;;;;;;;;;4.70;75.34;100927.69;5122821;27;5230;-78
2023/01/25 07:58:02;;;;;;;;;;;;;;;4.71;75.29;100937.38;5087331;27;5325;-78
2023/01/25 08:00:29;;;;;;;;;;;;;;;4.71;75.29;100926.72;5111294;27;5651;-78
2023/01/25 08:02:56;;;;;;;;;;;;;;;4.77;75.10;100910.00;5097101;27;5062;-78
2023/01/25 08:05:24;;;;;;;;;;;;;;;4.72;75.25;100915.03;5098493;27;5355;-78
2023/01/25 08:07:51;;;;;;;;;;;;;;;4.68;75.16;100909.22;5098751;27;5013;-78
2023/01/25 08:10:18;;;;;;;;;;;;;;;4.67;75.44;100920.88;5109489;27;5284;-78
2023/01/25 08:12:45;;;;;;;;;;;;;;;4.69;75.31;100892.19;5122988;27;5558;-78
2023/01/25 08:15:12;;;;;;;;;;;;;;;4.76;75.27;100898.50;5123339;27;5353;-79
2023/01/25 08:17:39;;;;;;;;;;;;;;;4.76;75.22;100919.00;5122870;27;5259;-78
2023/01/25 08:20:06;;;;;;;;;;;;;;;4.74;75.04;100918.38;5103652;27;5210;-78
2023/01/25 08:22:33;;;;;;;;;;;;;;;4.75;75.07;100902.16;5108268;27;5887;-78
2023/01/25 08:25:01;;;;;;;;;;;;;;;4.70;75.30;100895.69;5108027;27;5263;-79
2023/01/25 08:27:27;;;;;;;;;;;;;;;4.66;75.62;100897.03;5123840;27;5714;-79
2023/01/25 08:29:54;;;;;;;;;;;;;;;4.66;75.57;100887.19;5124682;27;5656;-78
2023/01/25 08:32:22;;;;;;;;;;;;;;;4.65;75.70;100882.88;5125008;27;5678;-78
2023/01/25 08:34:49;;;;;;;;;;;;;;;4.64;75.93;100891.88;5126049;27;5294;-78
2023/01/25 08:37:15;;;;;;;;;;;;;;;4.63;75.85;100898.22;5124225;27;5699;-78
2023/01/25 08:39:43;;;;;;;;;;;;;;;4.67;75.53;100923.53;5127943;27;5374;-78
2023/01/25 08:42:10;;;;;;;;;;;;;;;4.68;75.63;100929.72;5117594;27;4826;-78
2023/01/25 08:44:38;;;;;;;;;;;;;;;4.69;75.52;100926.03;5122220;27;4802;-78
2023/01/25 08:47:05;;;;;;;;;;;;;;;4.68;75.54;100932.41;5117096;27;4982;-78
2023/01/25 08:49:34;;;;;;;;;;;;;;;4.65;75.54;100925.56;5103764;28;5551;-78
2023/01/25 08:52:00;;;;;;;;;;;;;;;4.65;75.69;100906.06;5105524;27;4942;-78
2023/01/25 08:54:28;;;;;;;;;;;;;;;4.64;75.58;100899.03;5115694;27;5157;-77
2023/01/25 08:56:55;;;;;;;;;;;;;;;4.64;75.57;100907.03;5118458;27;5045;-77
2023/01/25 08:59:22;;;;;;;;;;;;;;;4.64;75.57;100915.06;5118323;27;5161;-78
2023/01/25 09:01:48;;;;;;;;;;;;;;;4.67;75.63;100915.53;5118692;27;5269;-78
2023/01/25 09:04:15;;;;;;;;;;;;;;;4.64;75.64;100915.06;5100851;27;5262;-77
2023/01/25 09:06:42;;;;;;;;;;;;;;;4.65;75.57;100912.22;5120180;27;5413;-78
2023/01/25 09:09:09;;;;;;;;;;;;;;;4.67;75.44;100906.69;5119355;27;5170;-77
2023/01/25 09:11:37;;;;;;;;;;;;;;;4.65;75.58;100890.06;5116391;27;5332;-78
2023/01/25 09:14:03;;;;;;;;;;;;;;;4.65;75.35;100888.22;5118650;27;5231;-78
2023/01/25 09:16:30;;;;;;;;;;;;;;;4.64;75.66;100888.38;5093614;28;5460;-77
2023/01/25 09:18:56;;;;;;;;;;;;;;;4.67;75.35;100883.50;5100364;28;5611;-77
2023/01/25 09:21:24;;;;;;;;;;;;;;;4.65;75.52;100872.19;5100810;28;5426;-78
2023/01/25 09:23:51;;;;;;;;;;;;;;;4.63;75.61;100874.19;5098864;28;5369;-77
2023/01/25 09:26:19;;;;;;;;;;;;;;;4.64;75.32;100865.19;5096427;28;5274;-77
2023/01/25 09:28:47;;;;;;;;;;;;;;;4.62;75.66;100869.03;5097818;28;5359;-77
2023/01/25 09:31:14;;;;;;;;;;;;;;;4.63;75.85;100865.38;5097133;28;5430;-77
2023/01/25 09:33:40;;;;;;;;;;;;;;;4.65;75.72;100866.88;5098347;28;5402;-77
2023/01/25 09:36:08;;;;;;;;;;;;;;;4.67;75.59;100864.00;5097825;28;5179;-77
2023/01/25 09:38:34;;;;;;;;;;;;;;;4.67;75.63;100867.50;5097797;28;5130;-77
2023/01/25 09:41:01;;;;;;;;;;;;;;;4.68;75.43;100857.69;5096587;28;5401;-77
2023/01/25 09:43:27;;;;;;;;;;;;;;;4.70;75.48;100863.66;5097822;28;5318;-77
2023/01/25 09:45:54;;;;;;;;;;;;;;;4.68;75.29;100849.69;5095769;28;5197;-77
2023/01/25 09:48:20;;;;;;;;;;;;;;;4.75;75.25;100855.97;5097462;28;5474;-77
2023/01/25 09:50:47;;;;;;;;;;;;;;;4.74;74.98;100857.81;5097163;28;5348;-77
2023/01/25 09:53:14;;;;;;;;;;;;;;;4.80;75.06;100844.78;5098638;28;5270;-77
2023/01/25 09:55:41;;;;;;;;;;;;;;;4.85;74.77;100843.22;5097591;28;5205;-77
2023/01/25 09:58:08;;;;;;;;;;;;;;;4.78;74.83;100843.09;5097920;28;5372;-77
2023/01/25 10:00:35;;;;;;;;;;;;;;;4.72;75.15;100842.97;5110614;27;5285;-77
2023/01/25 10:03:02;;;;;;;;;;;;;;;4.77;75.29;100837.97;5095630;28;5406;-77
2023/01/25 10:05:29;;;;;;;;;;;;;;;4.75;75.14;100843.47;5076916;27;4996;-77
2023/01/25 10:07:55;;;;;;;;;;;;;;;4.73;75.33;100836.63;5072128;27;5403;-77
2023/01/25 10:10:22;;;;;;;;;;;;;;;4.81;75.04;100833.91;5072431;27;5481;-77
2023/01/25 10:12:49;;;;;;;;;;;;;;;4.92;74.57;100830.88;5093757;27;5512;-77
2023/01/25 10:15:16;;;;;;;;;;;;;;;4.82;75.22;100826.75;5091881;28;5503;-77
2023/01/25 10:17:43;;;;;;;;;;;;;;;4.77;75.07;100829.94;5101782;27;5677;-77
2023/01/25 10:20:10;;;;;;;;;;;;;;;4.72;75.38;100829.63;5082109;28;5478;-77
2023/01/25 10:22:37;;;;;;;;;;;;;;;4.69;75.49;100830.81;5074318;28;5559;-77
2023/01/25 10:25:04;;;;;;;;;;;;;;;4.74;75.25;100820.47;5089220;28;5481;-77
2023/01/25 10:27:30;;;;;;;;;;;;;;;4.73;75.21;100829.44;5090049;28;5462;-77
2023/01/25 10:29:57;;;;;;;;;;;;;;;4.72;75.47;100825.13;5090888;28;4788;-77
2023/01/25 10:32:24;;;;;;;;;;;;;;;4.73;75.42;100808.09;5090945;28;2345;-77
2023/01/25 10:34:50;;;;;;;;;;;;;;;4.73;75.50;100817.94;5108368;28;4652;-77
2023/01/25 10:37:17;;;;;;;;;;;;;;;4.72;75.37;100802.97;5101955;28;1597;-77
2023/01/25 10:39:43;;;;;;;;;;;;;;;4.71;75.65;100794.13;5095558;28;5383;-78
2023/01/25 10:42:10;;;;;;;;;;;;;;;4.71;75.64;100795.97;5092489;28;5301;-77
2023/01/25 10:44:37;;;;;;;;;;;;;;;4.71;75.68;100801.31;5091112;28;5457;-77
2023/01/25 10:47:06;;;;;;;;;;;;;;;4.71;75.85;100801.31;5070872;28;5404;-77
2023/01/25 10:49:32;;;;;;;;;;;;;;;4.72;75.61;100797.63;5086204;28;5375;-77
2023/01/25 10:51:59;;;;;;;;;;;;;;;4.72;75.82;100801.13;5089534;28;5454;-77
2023/01/25 10:54:25;;;;;;;;;;;;;;;4.71;75.73;100798.63;5088899;28;5367;-77
2023/01/25 10:56:52;;;;;;;;;;;;;;;4.72;75.75;100786.94;5093423;28;5327;-77
2023/01/25 10:59:19;;;;;;;;;;;;;;;4.72;75.65;100773.59;5091101;28;5411;-77
2023/01/25 11:01:46;;;;;;;;;;;;;;;4.72;75.73;100771.75;5091594;28;5470;-77
2023/01/25 11:04:12;;;;;;;;;;;;;;;4.72;75.88;100763.75;5098731;28;5669;-78
2023/01/25 11:06:39;;;;;;;;;;;;;;;4.71;75.81;100759.44;5090393;28;5492;-77
2023/01/25 11:09:05;;;;;;;;;;;;;;;4.74;75.72;100768.94;5098988;28;5507;-77
2023/01/25 11:11:32;;;;;;;;;;;;;;;4.74;75.84;100750.25;5086199;28;5637;-78
2023/01/25 11:13:59;;;;;;;;;;;;;;;4.73;75.69;100754.72;5092738;28;5589;-77
2023/01/25 11:16:27;;;;;;;;;;;;;;;4.73;75.93;100757.41;5104867;27;5568;-77
2023/01/25 11:18:54;;;;;;;;;;;;;;;4.75;75.86;100763.41;5111787;27;5934;-77
2023/01/25 11:21:22;;;;;;;;;;;;;;;4.75;75.76;100763.41;5095493;27;5374;-77
2023/01/25 11:23:48;;;;;;;;;;;;;;;4.75;75.73;100762.56;5113059;27;5327;-77
2023/01/25 11:26:15;;;;;;;;;;;;;;;4.76;75.88;100756.22;5109596;27;6077;-77
2023/01/25 11:28:41;;;;;;;;;;;;;;;4.76;75.68;100773.09;5111507;28;5386;-77
2023/01/25 11:31:08;;;;;;;;;;;;;;;4.77;75.77;100766.72;5112669;27;5795;-77
2023/01/25 11:33:35;;;;;;;;;;;;;;;4.76;75.96;100759.75;5112541;28;6630;-77
2023/01/25 11:36:02;;;;;;;;;;;;;;;4.76;75.73;100756.22;5112604;28;5413;-78
2023/01/25 11:38:28;;;;;;;;;;;;;;;4.77;75.93;100749.91;5112407;28;5386;-78
2023/01/25 11:40:54;;;;;;;;;;;;;;;4.78;75.76;100756.88;5110642;28;5503;-77
2023/01/25 11:43:21;;;;;;;;;;;;;;;4.77;75.70;100755.22;5110604;28;5829;-77
2023/01/25 11:45:48;;;;;;;;;;;;;;;4.77;75.82;100744.56;5110174;28;5449;-77
2023/01/25 11:48:16;;;;;;;;;;;;;;;4.80;76.02;100746.03;5109382;27;5466;-77
2023/01/25 11:50:44;;;;;;;;;;;;;;;4.80;75.78;100744.22;5093518;28;5655;-78
2023/01/25 11:53:11;;;;;;;;;;;;;;;4.79;75.51;100739.84;5092513;28;5548;-77
2023/01/25 11:55:39;;;;;;;;;;;;;;;4.78;75.75;100736.38;5114892;27;5105;-77
2023/01/25 11:58:05;;;;;;;;;;;;;;;4.78;75.64;100725.69;5120447;28;5275;-78
2023/01/25 12:00:34;;;;;;;;;;;;;;;4.79;75.78;100723.84;5118558;27;4866;-78
2023/01/25 12:03:01;;;;;;;;;;;;;;;4.79;75.72;100710.50;5102040;28;2149;-78
2023/01/25 12:05:28;;;;;;;;;;;;;;;4.80;75.83;100720.19;5117691;28;2523;-78
2023/01/25 12:07:55;;;;;;;;;;;;;;;4.80;76.18;100720.19;5114071;27;4989;-77
2023/01/25 12:10:21;;;;;;;;;;;;;;;4.82;75.67;100730.66;5112172;28;4853;-77
2023/01/25 12:12:48;;;;;;;;;;;;;;;4.81;75.78;100737.84;5112994;28;4904;-77
2023/01/25 12:15:15;;;;;;;;;;;;;;;4.82;75.81;100730.66;5097076;28;5111;-77
2023/01/25 12:17:42;;;;;;;;;;;;;;;4.83;75.83;100721.69;5115098;28;5294;-77
2023/01/25 12:20:09;;;;;;;;;;;;;;;4.82;75.94;100709.31;5112280;28;4762;-77
2023/01/25 12:22:35;;;;;;;;;;;;;;;4.82;75.82;100701.31;5118256;27;4981;-77
2023/01/25 12:25:02;;;;;;;;;;;;;;;4.82;75.68;100695.97;5057143;27;925215;-76
2023/01/25 12:27:30;;;;;;;;;;;;;;;4.83;75.79;100695.00;5098743;28;4888;-77
2023/01/25 12:29:57;;;;;;;;;;;;;;;4.82;75.91;100695.97;5092235;27;5030;-77
2023/01/25 12:32:23;;;;;;;;;;;;;;;4.38;75.79;100613.94;5095958;28;4853;-77
2023/01/25 12:34:50;;;;;;;;;;;;;;;4.83;75.89;100695.81;5095030;28;5090;-77
2023/01/25 12:37:16;;;;;;;;;;;;;;;4.83;75.67;100686.97;5095048;28;5019;-77
2023/01/25 12:39:43;;;;;;;;;;;;;;;4.82;75.96;100680.78;5098389;28;5063;-78
2023/01/25 12:42:10;;;;;;;;;;;;;;;4.84;76.06;100673.44;5096214;28;4856;-78
2023/01/25 12:44:37;;;;;;;;;;;;;;;4.84;75.78;100678.78;5096290;28;4669;-77
2023/01/25 12:47:04;;;;;;;;;;;;;;;4.84;75.89;100680.63;5094793;28;5196;-78
2023/01/25 12:49:31;;;;;;;;;;;;;;;4.84;75.81;100680.63;5095632;28;5028;-77
2023/01/25 12:51:58;;;;;;;;;;;;;;;4.84;75.84;100680.63;5094778;28;5274;-77
2023/01/25 12:54:25;;;;;;;;;;;;;;;4.84;75.74;100670.78;5099483;28;5170;-77
2023/01/25 12:56:52;;;;;;;;;;;;;;;4.86;76.07;100665.28;5093873;28;5110;-77
2023/01/25 12:59:20;;;;;;;;;;;;;;;4.84;75.98;100645.94;5097343;28;4677;-77